sensor_id;sensor_type;location;lat;lon;timestamp;temperature;humidity
15906;DHT22;8051;50.820;4.884;2023-11-19T00:00:10;12.70;99.90
15906;DHT22;8051;50.820;4.884;2023-11-19T00:02:38;12.70;99.90
15906;DHT22;8051;50.820;4.884;2023-11-19T00:05:06;12.80;99.90
15906;DHT22;8051;50.820;4.884;2023-11-19T00:07:37;12.80;99.90
15906;DHT22;8051;50.820;4.884;2023-11-19T00:10:08;12.80;99.90
15906;DHT22;8051;50.820;4.884;2023-11-19T00:12:37;12.80;99.90
15906;DHT22;8051;50.820;4.884;2023-11-19T00:15:05;12.80;99.90
15906;DHT22;8051;50.820;4.884;2023-11-19T00:17:38;12.80;99.90
15906;DHT22;8051;50.820;4.884;2023-11-19T00:20:11;12.80;99.90
15906;DHT22;8051;50.820;4.884;2023-11-19T00:22:39;12.90;99.90
15906;DHT22;8051;50.820;4.884;2023-11-19T00:25:08;12.90;99.90
15906;DHT22;8051;50.820;4.884;2023-11-19T00:27:35;12.90;99.90
15906;DHT22;8051;50.820;4.884;2023-11-19T00:30:05;12.90;99.90
15906;DHT22;8051;50.820;4.884;2023-11-19T00:32:34;12.90;99.90
15906;DHT22;8051;50.820;4.884;2023-11-19T00:35:04;12.90;99.90
15906;DHT22;8051;50.820;4.884;2023-11-19T00:37:32;12.90;99.90
15906;DHT22;8051;50.820;4.884;2023-11-19T00:39:59;12.90;99.90
15906;DHT22;8051;50.820;4.884;2023-11-19T00:42:26;13.00;99.90
15906;DHT22;8051;50.820;4.884;2023-11-19T00:44:53;13.00;99.90
15906;DHT22;8051;50.820;4.884;2023-11-19T00:47:21;13.00;99.90
15906;DHT22;8051;50.820;4.884;2023-11-19T00:49:48;13.10;99.90
15906;DHT22;8051;50.820;4.884;2023-11-19T00:52:18;13.10;99.90
15906;DHT22;8051;50.820;4.884;2023-11-19T00:54:46;13.10;99.90
15906;DHT22;8051;50.820;4.884;2023-11-19T00:57:13;13.10;99.90
15906;DHT22;8051;50.820;4.884;2023-11-19T00:59:41;13.20;99.90
15906;DHT22;8051;50.820;4.884;2023-11-19T01:02:09;13.20;99.90
15906;DHT22;8051;50.820;4.884;2023-11-19T01:04:36;13.20;99.90
15906;DHT22;8051;50.820;4.884;2023-11-19T01:07:05;13.10;99.90
15906;DHT22;8051;50.820;4.884;2023-11-19T01:09:34;13.20;99.90
15906;DHT22;8051;50.820;4.884;2023-11-19T01:12:02;13.20;99.90
15906;DHT22;8051;50.820;4.884;2023-11-19T01:14:30;13.20;99.90
15906;DHT22;8051;50.820;4.884;2023-11-19T01:16:57;13.20;99.90
15906;DHT22;8051;50.820;4.884;2023-11-19T01:19:25;13.20;99.90
15906;DHT22;8051;50.820;4.884;2023-11-19T01:21:54;13.20;99.90
15906;DHT22;8051;50.820;4.884;2023-11-19T01:24:22;13.20;99.90
15906;DHT22;8051;50.820;4.884;2023-11-19T01:26:51;13.20;99.90
15906;DHT22;8051;50.820;4.884;2023-11-19T01:29:19;13.20;99.90
15906;DHT22;8051;50.820;4.884;2023-11-19T01:31:47;13.20;99.90
15906;DHT22;8051;50.820;4.884;2023-11-19T01:34:14;13.20;99.90
15906;DHT22;8051;50.820;4.884;2023-11-19T01:36:41;13.20;99.90
15906;DHT22;8051;50.820;4.884;2023-11-19T01:39:09;13.20;99.90
15906;DHT22;8051;50.820;4.884;2023-11-19T01:41:36;13.10;99.90
15906;DHT22;8051;50.820;4.884;2023-11-19T01:44:07;13.20;99.90
15906;DHT22;8051;50.820;4.884;2023-11-19T01:46:35;13.20;99.90
15906;DHT22;8051;50.820;4.884;2023-11-19T01:49:03;13.20;99.90
15906;DHT22;8051;50.820;4.884;2023-11-19T01:51:31;13.20;99.90
15906;DHT22;8051;50.820;4.884;2023-11-19T01:54:01;13.20;99.90
15906;DHT22;8051;50.820;4.884;2023-11-19T01:56:29;13.10;99.90
15906;DHT22;8051;50.820;4.884;2023-11-19T01:58:58;13.20;99.90
15906;DHT22;8051;50.820;4.884;2023-11-19T02:01:27;13.20;99.90
15906;DHT22;8051;50.820;4.884;2023-11-19T02:03:55;13.20;99.90
15906;DHT22;8051;50.820;4.884;2023-11-19T02:06:25;13.20;99.90
15906;DHT22;8051;50.820;4.884;2023-11-19T02:08:52;13.10;99.90
15906;DHT22;8051;50.820;4.884;2023-11-19T02:11:20;13.00;99.90
15906;DHT22;8051;50.820;4.884;2023-11-19T02:13:47;12.90;99.90
15906;DHT22;8051;50.820;4.884;2023-11-19T02:16:14;12.90;99.90
15906;DHT22;8051;50.820;4.884;2023-11-19T02:18:43;12.90;99.90
15906;DHT22;8051;50.820;4.884;2023-11-19T02:21:11;12.80;99.90
15906;DHT22;8051;50.820;4.884;2023-11-19T02:23:40;12.80;99.90
15906;DHT22;8051;50.820;4.884;2023-11-19T02:26:14;12.80;99.90
15906;DHT22;8051;50.820;4.884;2023-11-19T02:28:45;12.80;99.90
15906;DHT22;8051;50.820;4.884;2023-11-19T02:31:12;12.70;99.90
15906;DHT22;8051;50.820;4.884;2023-11-19T02:33:40;12.70;99.90
15906;DHT22;8051;50.820;4.884;2023-11-19T02:36:08;12.70;99.90
15906;DHT22;8051;50.820;4.884;2023-11-19T02:38:36;12.70;99.90
15906;DHT22;8051;50.820;4.884;2023-11-19T02:41:04;12.60;99.90
15906;DHT22;8051;50.820;4.884;2023-11-19T02:43:32;12.60;99.90
15906;DHT22;8051;50.820;4.884;2023-11-19T02:46:02;12.50;99.90
15906;DHT22;8051;50.820;4.884;2023-11-19T02:48:32;12.50;99.90
15906;DHT22;8051;50.820;4.884;2023-11-19T02:51:01;12.50;99.90
15906;DHT22;8051;50.820;4.884;2023-11-19T02:53:29;12.40;99.90
15906;DHT22;8051;50.820;4.884;2023-11-19T02:55:57;12.40;99.90
15906;DHT22;8051;50.820;4.884;2023-11-19T02:58:35;12.30;99.90
15906;DHT22;8051;50.820;4.884;2023-11-19T03:01:04;12.30;99.90
15906;DHT22;8051;50.820;4.884;2023-11-19T03:03:38;12.30;99.90
15906;DHT22;8051;50.820;4.884;2023-11-19T03:06:07;12.30;99.90
15906;DHT22;8051;50.820;4.884;2023-11-19T03:08:36;12.20;99.90
15906;DHT22;8051;50.820;4.884;2023-11-19T03:11:03;12.20;99.90
15906;DHT22;8051;50.820;4.884;2023-11-19T03:13:32;12.20;99.90
15906;DHT22;8051;50.820;4.884;2023-11-19T03:15:59;12.20;99.90
15906;DHT22;8051;50.820;4.884;2023-11-19T03:18:28;12.20;99.90
15906;DHT22;8051;50.820;4.884;2023-11-19T03:20:55;12.20;99.90
15906;DHT22;8051;50.820;4.884;2023-11-19T03:23:24;12.10;99.90
15906;DHT22;8051;50.820;4.884;2023-11-19T03:25:54;12.10;99.90
15906;DHT22;8051;50.820;4.884;2023-11-19T03:28:22;12.20;99.90
15906;DHT22;8051;50.820;4.884;2023-11-19T03:30:51;12.30;99.90
15906;DHT22;8051;50.820;4.884;2023-11-19T03:33:19;12.30;99.90
15906;DHT22;8051;50.820;4.884;2023-11-19T03:35:47;12.40;99.90
15906;DHT22;8051;50.820;4.884;2023-11-19T03:38:17;12.30;99.90
15906;DHT22;8051;50.820;4.884;2023-11-19T03:40:44;12.30;99.90
15906;DHT22;8051;50.820;4.884;2023-11-19T03:43:11;12.30;99.90
15906;DHT22;8051;50.820;4.884;2023-11-19T03:45:40;12.20;99.90
15906;DHT22;8051;50.820;4.884;2023-11-19T03:48:07;12.20;99.90
15906;DHT22;8051;50.820;4.884;2023-11-19T03:50:34;12.10;99.90
15906;DHT22;8051;50.820;4.884;2023-11-19T03:53:03;12.10;99.90
15906;DHT22;8051;50.820;4.884;2023-11-19T03:55:31;12.00;99.90
15906;DHT22;8051;50.820;4.884;2023-11-19T03:57:58;12.00;99.90
15906;DHT22;8051;50.820;4.884;2023-11-19T04:00:25;11.90;99.90
15906;DHT22;8051;50.820;4.884;2023-11-19T04:02:53;11.90;99.90
15906;DHT22;8051;50.820;4.884;2023-11-19T04:05:21;11.80;99.90
15906;DHT22;8051;50.820;4.884;2023-11-19T04:07:48;11.80;99.90
15906;DHT22;8051;50.820;4.884;2023-11-19T04:10:17;11.80;99.90
15906;DHT22;8051;50.820;4.884;2023-11-19T04:12:45;11.70;99.90
15906;DHT22;8051;50.820;4.884;2023-11-19T04:15:13;11.70;99.90
15906;DHT22;8051;50.820;4.884;2023-11-19T04:17:40;11.70;99.90
15906;DHT22;8051;50.820;4.884;2023-11-19T04:20:08;11.70;99.90
15906;DHT22;8051;50.820;4.884;2023-11-19T04:22:39;11.70;99.90
15906;DHT22;8051;50.820;4.884;2023-11-19T04:25:07;11.70;99.90
15906;DHT22;8051;50.820;4.884;2023-11-19T04:27:36;11.70;99.90
15906;DHT22;8051;50.820;4.884;2023-11-19T04:30:05;11.60;99.90
15906;DHT22;8051;50.820;4.884;2023-11-19T04:32:36;11.60;99.90
15906;DHT22;8051;50.820;4.884;2023-11-19T04:35:05;11.70;99.90
15906;DHT22;8051;50.820;4.884;2023-11-19T04:37:33;11.80;99.90
15906;DHT22;8051;50.820;4.884;2023-11-19T04:40:00;11.80;99.90
15906;DHT22;8051;50.820;4.884;2023-11-19T04:42:28;11.80;99.90
15906;DHT22;8051;50.820;4.884;2023-11-19T04:44:57;11.80;99.90
15906;DHT22;8051;50.820;4.884;2023-11-19T04:47:24;11.90;99.90
15906;DHT22;8051;50.820;4.884;2023-11-19T04:49:52;11.90;99.90
15906;DHT22;8051;50.820;4.884;2023-11-19T04:52:19;11.90;99.90
15906;DHT22;8051;50.820;4.884;2023-11-19T04:54:47;11.90;99.90
15906;DHT22;8051;50.820;4.884;2023-11-19T04:57:14;11.80;99.90
15906;DHT22;8051;50.820;4.884;2023-11-19T04:59:42;11.70;99.90
15906;DHT22;8051;50.820;4.884;2023-11-19T05:02:11;11.70;99.90
15906;DHT22;8051;50.820;4.884;2023-11-19T05:04:42;11.70;99.90
15906;DHT22;8051;50.820;4.884;2023-11-19T05:07:10;11.70;99.90
15906;DHT22;8051;50.820;4.884;2023-11-19T05:09:37;11.70;99.90
15906;DHT22;8051;50.820;4.884;2023-11-19T05:12:05;11.70;99.90
15906;DHT22;8051;50.820;4.884;2023-11-19T05:14:35;11.70;99.90
15906;DHT22;8051;50.820;4.884;2023-11-19T05:17:03;11.70;99.90
15906;DHT22;8051;50.820;4.884;2023-11-19T05:19:32;11.80;99.90
15906;DHT22;8051;50.820;4.884;2023-11-19T05:21:59;11.80;99.90
15906;DHT22;8051;50.820;4.884;2023-11-19T05:24:27;11.90;99.90
15906;DHT22;8051;50.820;4.884;2023-11-19T05:26:55;11.90;99.90
15906;DHT22;8051;50.820;4.884;2023-11-19T05:29:24;11.90;99.90
15906;DHT22;8051;50.820;4.884;2023-11-19T05:31:51;11.80;99.90
15906;DHT22;8051;50.820;4.884;2023-11-19T05:34:20;11.90;99.90
15906;DHT22;8051;50.820;4.884;2023-11-19T05:36:49;11.80;99.90
15906;DHT22;8051;50.820;4.884;2023-11-19T05:39:17;11.70;99.90
15906;DHT22;8051;50.820;4.884;2023-11-19T05:41:46;11.60;99.90
15906;DHT22;8051;50.820;4.884;2023-11-19T05:44:13;11.60;99.90
15906;DHT22;8051;50.820;4.884;2023-11-19T05:46:41;11.50;99.90
15906;DHT22;8051;50.820;4.884;2023-11-19T05:49:08;11.40;99.90
15906;DHT22;8051;50.820;4.884;2023-11-19T05:51:37;11.40;99.90
15906;DHT22;8051;50.820;4.884;2023-11-19T05:54:06;11.30;99.90
15906;DHT22;8051;50.820;4.884;2023-11-19T05:56:34;11.20;99.90
15906;DHT22;8051;50.820;4.884;2023-11-19T05:59:01;11.20;99.90
15906;DHT22;8051;50.820;4.884;2023-11-19T06:01:33;11.10;99.90
15906;DHT22;8051;50.820;4.884;2023-11-19T06:04:01;11.10;99.90
15906;DHT22;8051;50.820;4.884;2023-11-19T06:06:28;11.10;99.90
15906;DHT22;8051;50.820;4.884;2023-11-19T06:08:56;11.10;99.90
15906;DHT22;8051;50.820;4.884;2023-11-19T06:11:25;11.20;99.90
15906;DHT22;8051;50.820;4.884;2023-11-19T06:13:52;11.20;99.90
15906;DHT22;8051;50.820;4.884;2023-11-19T06:16:20;11.20;99.90
15906;DHT22;8051;50.820;4.884;2023-11-19T06:18:47;11.20;99.90
15906;DHT22;8051;50.820;4.884;2023-11-19T06:21:15;11.10;99.90
15906;DHT22;8051;50.820;4.884;2023-11-19T06:23:43;11.10;99.90
15906;DHT22;8051;50.820;4.884;2023-11-19T06:26:10;11.00;99.90
15906;DHT22;8051;50.820;4.884;2023-11-19T06:28:39;10.90;99.90
15906;DHT22;8051;50.820;4.884;2023-11-19T06:31:07;10.90;99.90
15906;DHT22;8051;50.820;4.884;2023-11-19T06:33:34;10.80;99.90
15906;DHT22;8051;50.820;4.884;2023-11-19T06:36:01;10.80;99.90
15906;DHT22;8051;50.820;4.884;2023-11-19T06:38:29;10.80;99.90
15906;DHT22;8051;50.820;4.884;2023-11-19T06:40:56;10.80;99.90
15906;DHT22;8051;50.820;4.884;2023-11-19T06:43:23;10.70;99.90
15906;DHT22;8051;50.820;4.884;2023-11-19T06:45:53;10.80;99.90
15906;DHT22;8051;50.820;4.884;2023-11-19T06:48:21;10.80;99.90
15906;DHT22;8051;50.820;4.884;2023-11-19T06:50:48;10.80;99.90
15906;DHT22;8051;50.820;4.884;2023-11-19T06:53:16;10.80;99.90
15906;DHT22;8051;50.820;4.884;2023-11-19T06:55:43;10.80;99.90
15906;DHT22;8051;50.820;4.884;2023-11-19T06:58:11;10.70;99.90
15906;DHT22;8051;50.820;4.884;2023-11-19T07:00:39;10.70;99.90
15906;DHT22;8051;50.820;4.884;2023-11-19T07:03:08;10.70;99.90
15906;DHT22;8051;50.820;4.884;2023-11-19T07:05:36;10.70;99.90
15906;DHT22;8051;50.820;4.884;2023-11-19T07:08:06;10.70;99.90
15906;DHT22;8051;50.820;4.884;2023-11-19T07:10:34;10.70;99.90
15906;DHT22;8051;50.820;4.884;2023-11-19T07:13:01;10.60;99.90
15906;DHT22;8051;50.820;4.884;2023-11-19T07:15:31;10.60;99.90
15906;DHT22;8051;50.820;4.884;2023-11-19T07:17:59;10.70;99.90
15906;DHT22;8051;50.820;4.884;2023-11-19T07:20:28;10.70;99.90
15906;DHT22;8051;50.820;4.884;2023-11-19T07:22:57;10.70;99.90
15906;DHT22;8051;50.820;4.884;2023-11-19T07:25:24;10.70;99.90
15906;DHT22;8051;50.820;4.884;2023-11-19T07:27:52;10.70;99.90
15906;DHT22;8051;50.820;4.884;2023-11-19T07:30:20;10.70;99.90
15906;DHT22;8051;50.820;4.884;2023-11-19T07:32:47;10.70;99.90
15906;DHT22;8051;50.820;4.884;2023-11-19T07:35:15;10.80;99.90
15906;DHT22;8051;50.820;4.884;2023-11-19T07:37:43;10.80;99.90
15906;DHT22;8051;50.820;4.884;2023-11-19T07:40:12;10.80;99.90
15906;DHT22;8051;50.820;4.884;2023-11-19T07:42:40;10.80;99.90
15906;DHT22;8051;50.820;4.884;2023-11-19T07:45:08;10.80;99.90
15906;DHT22;8051;50.820;4.884;2023-11-19T07:47:35;10.90;99.90
15906;DHT22;8051;50.820;4.884;2023-11-19T07:50:05;10.90;99.90
15906;DHT22;8051;50.820;4.884;2023-11-19T07:52:32;11.00;99.90
15906;DHT22;8051;50.820;4.884;2023-11-19T07:55:01;11.10;99.90
15906;DHT22;8051;50.820;4.884;2023-11-19T07:57:29;11.10;99.90
15906;DHT22;8051;50.820;4.884;2023-11-19T07:59:57;11.10;99.90
15906;DHT22;8051;50.820;4.884;2023-11-19T08:02:24;11.10;99.90
15906;DHT22;8051;50.820;4.884;2023-11-19T08:04:52;11.10;99.90
15906;DHT22;8051;50.820;4.884;2023-11-19T08:07:21;11.10;99.90
15906;DHT22;8051;50.820;4.884;2023-11-19T08:09:49;11.10;99.90
15906;DHT22;8051;50.820;4.884;2023-11-19T08:12:17;11.20;99.90
15906;DHT22;8051;50.820;4.884;2023-11-19T08:14:45;11.20;99.90
15906;DHT22;8051;50.820;4.884;2023-11-19T08:17:12;11.20;99.90
15906;DHT22;8051;50.820;4.884;2023-11-19T08:19:40;11.20;99.90
15906;DHT22;8051;50.820;4.884;2023-11-19T08:22:07;11.30;99.90
15906;DHT22;8051;50.820;4.884;2023-11-19T08:24:35;11.30;99.90
15906;DHT22;8051;50.820;4.884;2023-11-19T08:27:03;11.30;99.90
15906;DHT22;8051;50.820;4.884;2023-11-19T08:29:32;11.40;99.90
15906;DHT22;8051;50.820;4.884;2023-11-19T08:32:00;11.40;99.90
15906;DHT22;8051;50.820;4.884;2023-11-19T08:34:29;11.40;99.90
15906;DHT22;8051;50.820;4.884;2023-11-19T08:36:56;11.40;99.90
15906;DHT22;8051;50.820;4.884;2023-11-19T08:39:24;11.50;99.90
15906;DHT22;8051;50.820;4.884;2023-11-19T08:41:51;11.50;99.90
15906;DHT22;8051;50.820;4.884;2023-11-19T08:44:19;11.50;99.90
15906;DHT22;8051;50.820;4.884;2023-11-19T08:46:48;11.60;99.90
15906;DHT22;8051;50.820;4.884;2023-11-19T08:49:16;11.60;99.90
15906;DHT22;8051;50.820;4.884;2023-11-19T08:51:43;11.60;99.90
15906;DHT22;8051;50.820;4.884;2023-11-19T08:54:11;11.70;99.90
15906;DHT22;8051;50.820;4.884;2023-11-19T08:56:39;11.70;99.90
15906;DHT22;8051;50.820;4.884;2023-11-19T08:59:07;11.80;99.90
15906;DHT22;8051;50.820;4.884;2023-11-19T09:01:34;11.90;99.90
15906;DHT22;8051;50.820;4.884;2023-11-19T09:04:03;12.00;99.90
15906;DHT22;8051;50.820;4.884;2023-11-19T09:06:32;12.20;99.90
15906;DHT22;8051;50.820;4.884;2023-11-19T09:08:59;12.30;99.90
15906;DHT22;8051;50.820;4.884;2023-11-19T09:11:29;12.40;99.90
15906;DHT22;8051;50.820;4.884;2023-11-19T09:13:56;12.40;99.90
15906;DHT22;8051;50.820;4.884;2023-11-19T09:16:23;12.40;99.90
15906;DHT22;8051;50.820;4.884;2023-11-19T09:18:51;12.30;99.90
15906;DHT22;8051;50.820;4.884;2023-11-19T09:21:20;12.30;99.90
15906;DHT22;8051;50.820;4.884;2023-11-19T09:23:48;12.30;99.90
15906;DHT22;8051;50.820;4.884;2023-11-19T09:26:15;12.40;99.90
15906;DHT22;8051;50.820;4.884;2023-11-19T09:28:42;12.50;99.90
15906;DHT22;8051;50.820;4.884;2023-11-19T09:31:16;12.60;99.90
15906;DHT22;8051;50.820;4.884;2023-11-19T09:33:44;12.70;99.90
15906;DHT22;8051;50.820;4.884;2023-11-19T09:36:12;12.70;99.90
15906;DHT22;8051;50.820;4.884;2023-11-19T09:38:44;12.80;99.90
15906;DHT22;8051;50.820;4.884;2023-11-19T09:41:11;12.80;99.90
15906;DHT22;8051;50.820;4.884;2023-11-19T09:43:39;12.90;99.90
15906;DHT22;8051;50.820;4.884;2023-11-19T09:46:10;12.80;99.90
15906;DHT22;8051;50.820;4.884;2023-11-19T09:48:38;12.70;99.90
15906;DHT22;8051;50.820;4.884;2023-11-19T09:51:07;12.70;99.90
15906;DHT22;8051;50.820;4.884;2023-11-19T09:53:35;12.60;99.90
15906;DHT22;8051;50.820;4.884;2023-11-19T09:56:05;12.60;99.90
15906;DHT22;8051;50.820;4.884;2023-11-19T09:58:34;12.60;99.90
15906;DHT22;8051;50.820;4.884;2023-11-19T10:01:02;12.60;99.90
15906;DHT22;8051;50.820;4.884;2023-11-19T10:03:33;12.60;99.90
15906;DHT22;8051;50.820;4.884;2023-11-19T10:06:04;12.50;99.90
15906;DHT22;8051;50.820;4.884;2023-11-19T10:08:33;12.50;99.90
15906;DHT22;8051;50.820;4.884;2023-11-19T10:11:02;12.50;99.90
15906;DHT22;8051;50.820;4.884;2023-11-19T10:13:30;12.50;99.90
15906;DHT22;8051;50.820;4.884;2023-11-19T10:15:58;12.50;99.90
15906;DHT22;8051;50.820;4.884;2023-11-19T10:18:26;12.50;99.90
15906;DHT22;8051;50.820;4.884;2023-11-19T10:20:54;12.50;99.90
15906;DHT22;8051;50.820;4.884;2023-11-19T10:23:22;12.60;99.90
15906;DHT22;8051;50.820;4.884;2023-11-19T10:25:53;12.60;99.90
15906;DHT22;8051;50.820;4.884;2023-11-19T10:28:22;12.60;99.90
15906;DHT22;8051;50.820;4.884;2023-11-19T10:30:49;12.60;99.90
15906;DHT22;8051;50.820;4.884;2023-11-19T10:33:16;12.60;99.90
15906;DHT22;8051;50.820;4.884;2023-11-19T10:35:54;12.70;99.90
15906;DHT22;8051;50.820;4.884;2023-11-19T10:38:23;12.70;99.90
15906;DHT22;8051;50.820;4.884;2023-11-19T10:40:50;12.80;99.90
15906;DHT22;8051;50.820;4.884;2023-11-19T10:43:18;12.90;99.90
15906;DHT22;8051;50.820;4.884;2023-11-19T10:45:49;13.00;99.90
15906;DHT22;8051;50.820;4.884;2023-11-19T10:48:16;13.10;99.90
15906;DHT22;8051;50.820;4.884;2023-11-19T10:50:45;13.30;99.90
15906;DHT22;8051;50.820;4.884;2023-11-19T10:53:13;13.50;99.90
15906;DHT22;8051;50.820;4.884;2023-11-19T10:55:41;13.50;99.90
15906;DHT22;8051;50.820;4.884;2023-11-19T10:58:12;13.70;99.90
15906;DHT22;8051;50.820;4.884;2023-11-19T11:00:44;13.70;99.90
15906;DHT22;8051;50.820;4.884;2023-11-19T11:03:17;13.80;99.90
15906;DHT22;8051;50.820;4.884;2023-11-19T11:05:46;13.70;99.90
15906;DHT22;8051;50.820;4.884;2023-11-19T11:08:14;13.90;99.90
15906;DHT22;8051;50.820;4.884;2023-11-19T11:10:45;14.00;99.90
15906;DHT22;8051;50.820;4.884;2023-11-19T11:13:14;14.10;99.90
15906;DHT22;8051;50.820;4.884;2023-11-19T11:15:43;14.10;99.90
15906;DHT22;8051;50.820;4.884;2023-11-19T11:18:14;14.00;99.90
15906;DHT22;8051;50.820;4.884;2023-11-19T11:20:41;13.90;99.90
15906;DHT22;8051;50.820;4.884;2023-11-19T11:23:54;14.00;99.90
15906;DHT22;8051;50.820;4.884;2023-11-19T11:26:41;14.00;99.90
15906;DHT22;8051;50.820;4.884;2023-11-19T11:29:20;14.10;99.90
15906;DHT22;8051;50.820;4.884;2023-11-19T11:31:59;14.20;99.90
15906;DHT22;8051;50.820;4.884;2023-11-19T11:34:51;14.30;99.90
15906;DHT22;8051;50.820;4.884;2023-11-19T11:37:26;14.40;99.90
15906;DHT22;8051;50.820;4.884;2023-11-19T11:39:57;14.30;99.90
15906;DHT22;8051;50.820;4.884;2023-11-19T11:42:36;14.20;99.90
15906;DHT22;8051;50.820;4.884;2023-11-19T11:45:05;14.00;99.90
15906;DHT22;8051;50.820;4.884;2023-11-19T11:48:06;13.80;99.90
15906;DHT22;8051;50.820;4.884;2023-11-19T11:50:48;13.70;99.90
15906;DHT22;8051;50.820;4.884;2023-11-19T11:53:18;13.60;99.90
15906;DHT22;8051;50.820;4.884;2023-11-19T11:55:55;13.60;99.90
15906;DHT22;8051;50.820;4.884;2023-11-19T11:58:32;13.60;99.90
15906;DHT22;8051;50.820;4.884;2023-11-19T12:01:05;13.60;99.90
15906;DHT22;8051;50.820;4.884;2023-11-19T12:03:37;13.50;99.90
15906;DHT22;8051;50.820;4.884;2023-11-19T12:06:07;13.50;99.90
15906;DHT22;8051;50.820;4.884;2023-11-19T12:08:35;13.50;99.90
15906;DHT22;8051;50.820;4.884;2023-11-19T12:11:03;13.40;99.90
15906;DHT22;8051;50.820;4.884;2023-11-19T12:13:46;13.40;99.90
15906;DHT22;8051;50.820;4.884;2023-11-19T12:16:16;13.50;99.90
15906;DHT22;8051;50.820;4.884;2023-11-19T12:18:43;13.50;99.90
15906;DHT22;8051;50.820;4.884;2023-11-19T12:21:27;13.60;99.90
15906;DHT22;8051;50.820;4.884;2023-11-19T12:23:58;13.60;99.90
15906;DHT22;8051;50.820;4.884;2023-11-19T12:26:39;13.80;99.90
15906;DHT22;8051;50.820;4.884;2023-11-19T12:29:07;14.00;99.90
15906;DHT22;8051;50.820;4.884;2023-11-19T12:31:35;14.20;99.90
15906;DHT22;8051;50.820;4.884;2023-11-19T12:34:09;14.10;99.90
15906;DHT22;8051;50.820;4.884;2023-11-19T12:36:40;14.10;99.90
15906;DHT22;8051;50.820;4.884;2023-11-19T12:39:10;14.00;99.90
15906;DHT22;8051;50.820;4.884;2023-11-19T12:41:53;13.90;99.90
15906;DHT22;8051;50.820;4.884;2023-11-19T12:44:21;13.90;99.90
15906;DHT22;8051;50.820;4.884;2023-11-19T12:47:02;14.00;99.90
15906;DHT22;8051;50.820;4.884;2023-11-19T12:49:30;14.00;99.90
15906;DHT22;8051;50.820;4.884;2023-11-19T12:51:59;13.90;99.90
15906;DHT22;8051;50.820;4.884;2023-11-19T12:54:34;13.70;99.90
15906;DHT22;8051;50.820;4.884;2023-11-19T12:57:02;13.50;99.90
15906;DHT22;8051;50.820;4.884;2023-11-19T12:59:30;13.30;99.90
15906;DHT22;8051;50.820;4.884;2023-11-19T13:01:58;13.20;99.90
15906;DHT22;8051;50.820;4.884;2023-11-19T13:04:28;13.20;99.90
15906;DHT22;8051;50.820;4.884;2023-11-19T13:06:56;13.30;99.90
15906;DHT22;8051;50.820;4.884;2023-11-19T13:09:26;13.30;99.90
15906;DHT22;8051;50.820;4.884;2023-11-19T13:11:54;13.40;99.90
15906;DHT22;8051;50.820;4.884;2023-11-19T13:14:22;13.40;99.90
15906;DHT22;8051;50.820;4.884;2023-11-19T13:16:49;13.50;99.90
15906;DHT22;8051;50.820;4.884;2023-11-19T13:19:19;13.60;99.90
15906;DHT22;8051;50.820;4.884;2023-11-19T13:21:49;13.70;99.90
15906;DHT22;8051;50.820;4.884;2023-11-19T13:24:16;13.80;99.90
15906;DHT22;8051;50.820;4.884;2023-11-19T13:26:45;13.90;99.90
15906;DHT22;8051;50.820;4.884;2023-11-19T13:29:13;14.00;99.90
15906;DHT22;8051;50.820;4.884;2023-11-19T13:31:40;14.00;99.90
15906;DHT22;8051;50.820;4.884;2023-11-19T13:34:08;13.80;99.90
15906;DHT22;8051;50.820;4.884;2023-11-19T13:36:36;13.70;99.90
15906;DHT22;8051;50.820;4.884;2023-11-19T13:39:04;13.50;99.90
15906;DHT22;8051;50.820;4.884;2023-11-19T13:41:33;13.40;99.90
15906;DHT22;8051;50.820;4.884;2023-11-19T13:44:02;13.30;99.90
15906;DHT22;8051;50.820;4.884;2023-11-19T13:46:29;13.20;99.90
15906;DHT22;8051;50.820;4.884;2023-11-19T13:48:57;13.10;99.90
15906;DHT22;8051;50.820;4.884;2023-11-19T13:51:24;12.80;99.90
15906;DHT22;8051;50.820;4.884;2023-11-19T13:53:52;12.50;99.90
15906;DHT22;8051;50.820;4.884;2023-11-19T13:56:20;12.30;99.90
15906;DHT22;8051;50.820;4.884;2023-11-19T13:58:47;12.30;99.90
15906;DHT22;8051;50.820;4.884;2023-11-19T14:01:16;12.30;99.90
15906;DHT22;8051;50.820;4.884;2023-11-19T14:03:43;12.30;99.90
15906;DHT22;8051;50.820;4.884;2023-11-19T14:06:10;12.30;99.90
15906;DHT22;8051;50.820;4.884;2023-11-19T14:08:38;12.40;99.90
15906;DHT22;8051;50.820;4.884;2023-11-19T14:11:06;12.40;99.90
15906;DHT22;8051;50.820;4.884;2023-11-19T14:13:33;12.50;99.90
15906;DHT22;8051;50.820;4.884;2023-11-19T14:16:01;12.50;99.90
15906;DHT22;8051;50.820;4.884;2023-11-19T14:18:33;12.50;99.90
15906;DHT22;8051;50.820;4.884;2023-11-19T14:21:01;12.40;99.90
15906;DHT22;8051;50.820;4.884;2023-11-19T14:23:29;12.30;99.90
15906;DHT22;8051;50.820;4.884;2023-11-19T14:25:57;12.30;99.90
15906;DHT22;8051;50.820;4.884;2023-11-19T14:28:23;12.30;99.90
15906;DHT22;8051;50.820;4.884;2023-11-19T14:30:52;12.30;99.90
15906;DHT22;8051;50.820;4.884;2023-11-19T14:33:23;12.50;99.90
15906;DHT22;8051;50.820;4.884;2023-11-19T14:35:52;12.60;99.90
15906;DHT22;8051;50.820;4.884;2023-11-19T14:38:19;12.60;99.90
15906;DHT22;8051;50.820;4.884;2023-11-19T14:40:47;12.70;99.90
15906;DHT22;8051;50.820;4.884;2023-11-19T14:43:15;12.70;99.90
15906;DHT22;8051;50.820;4.884;2023-11-19T14:45:42;12.70;99.90
15906;DHT22;8051;50.820;4.884;2023-11-19T14:48:10;12.70;99.90
15906;DHT22;8051;50.820;4.884;2023-11-19T14:50:37;12.70;99.90
15906;DHT22;8051;50.820;4.884;2023-11-19T14:53:06;12.70;99.90
15906;DHT22;8051;50.820;4.884;2023-11-19T14:55:33;12.60;99.90
15906;DHT22;8051;50.820;4.884;2023-11-19T14:58:01;12.50;99.90
15906;DHT22;8051;50.820;4.884;2023-11-19T15:00:28;12.60;99.90
15906;DHT22;8051;50.820;4.884;2023-11-19T15:02:55;12.60;99.90
15906;DHT22;8051;50.820;4.884;2023-11-19T15:05:23;12.60;99.90
15906;DHT22;8051;50.820;4.884;2023-11-19T15:07:50;12.60;99.90
15906;DHT22;8051;50.820;4.884;2023-11-19T15:10:20;12.60;99.90
15906;DHT22;8051;50.820;4.884;2023-11-19T15:12:48;12.50;99.90
15906;DHT22;8051;50.820;4.884;2023-11-19T15:15:15;12.50;99.90
15906;DHT22;8051;50.820;4.884;2023-11-19T15:17:43;12.60;99.90
15906;DHT22;8051;50.820;4.884;2023-11-19T15:20:12;12.60;99.90
15906;DHT22;8051;50.820;4.884;2023-11-19T15:22:44;12.50;99.90
15906;DHT22;8051;50.820;4.884;2023-11-19T15:25:11;12.30;99.90
15906;DHT22;8051;50.820;4.884;2023-11-19T15:27:39;12.30;99.90
15906;DHT22;8051;50.820;4.884;2023-11-19T15:30:07;12.30;99.90
15906;DHT22;8051;50.820;4.884;2023-11-19T15:32:35;12.30;99.90
15906;DHT22;8051;50.820;4.884;2023-11-19T15:35:03;12.30;99.90
15906;DHT22;8051;50.820;4.884;2023-11-19T15:37:33;12.30;99.90
15906;DHT22;8051;50.820;4.884;2023-11-19T15:40:00;12.30;99.90
15906;DHT22;8051;50.820;4.884;2023-11-19T15:42:30;12.20;99.90
15906;DHT22;8051;50.820;4.884;2023-11-19T15:44:59;12.20;99.90
15906;DHT22;8051;50.820;4.884;2023-11-19T15:47:26;12.20;99.90
15906;DHT22;8051;50.820;4.884;2023-11-19T15:49:53;12.20;99.90
15906;DHT22;8051;50.820;4.884;2023-11-19T15:52:21;12.30;99.90
15906;DHT22;8051;50.820;4.884;2023-11-19T15:54:49;12.30;99.90